sensor_id;sensor_type;location;lat;lon;timestamp;temperature;humidity
11280;DHT22;5696;50.928;6.960;2022-07-29T05:03:30;20.10;99.90
11280;DHT22;5696;50.928;6.960;2022-07-29T05:05:56;20.30;99.90
11280;DHT22;5696;50.928;6.960;2022-07-29T05:08:22;20.60;99.90
11280;DHT22;5696;50.928;6.960;2022-07-29T05:10:48;20.50;99.90
11280;DHT22;5696;50.928;6.960;2022-07-29T05:13:14;20.60;99.90
11280;DHT22;5696;50.928;6.960;2022-07-29T05:15:40;20.60;99.90
11280;DHT22;5696;50.928;6.960;2022-07-29T05:18:06;20.60;99.90
11280;DHT22;5696;50.928;6.960;2022-07-29T05:20:32;20.70;99.90
11280;DHT22;5696;50.928;6.960;2022-07-29T05:23:00;20.70;99.60
11280;DHT22;5696;50.928;6.960;2022-07-29T05:25:27;20.80;99.40
11280;DHT22;5696;50.928;6.960;2022-07-29T05:27:53;20.90;99.30
11280;DHT22;5696;50.928;6.960;2022-07-29T05:30:19;21.00;98.80
11280;DHT22;5696;50.928;6.960;2022-07-29T05:32:45;21.10;98.60
11280;DHT22;5696;50.928;6.960;2022-07-29T05:35:12;21.20;98.10
11280;DHT22;5696;50.928;6.960;2022-07-29T05:37:38;21.30;98.30
11280;DHT22;5696;50.928;6.960;2022-07-29T05:40:04;21.40;98.00
11280;DHT22;5696;50.928;6.960;2022-07-29T05:42:29;21.20;97.70
11280;DHT22;5696;50.928;6.960;2022-07-29T05:44:55;21.10;98.00
11280;DHT22;5696;50.928;6.960;2022-07-29T05:47:22;21.10;97.80
11280;DHT22;5696;50.928;6.960;2022-07-29T05:49:47;21.20;98.00
11280;DHT22;5696;50.928;6.960;2022-07-29T05:52:14;21.30;97.80
11280;DHT22;5696;50.928;6.960;2022-07-29T05:54:40;21.50;97.30
11280;DHT22;5696;50.928;6.960;2022-07-29T05:57:05;21.70;96.70
11280;DHT22;5696;50.928;6.960;2022-07-29T05:59:35;21.80;96.30
11280;DHT22;5696;50.928;6.960;2022-07-29T06:02:01;21.80;96.10
11280;DHT22;5696;50.928;6.960;2022-07-29T06:04:27;21.90;96.20
11280;DHT22;5696;50.928;6.960;2022-07-29T06:06:52;22.00;95.70
11280;DHT22;5696;50.928;6.960;2022-07-29T06:09:18;22.10;95.60
11280;DHT22;5696;50.928;6.960;2022-07-29T06:11:44;22.20;95.70
11280;DHT22;5696;50.928;6.960;2022-07-29T06:14:09;22.40;95.30
11280;DHT22;5696;50.928;6.960;2022-07-29T06:16:37;22.60;95.00
11280;DHT22;5696;50.928;6.960;2022-07-29T06:19:02;22.60;93.60
11280;DHT22;5696;50.928;6.960;2022-07-29T06:21:29;22.50;94.10
11280;DHT22;5696;50.928;6.960;2022-07-29T06:23:55;22.30;94.00
11280;DHT22;5696;50.928;6.960;2022-07-29T06:26:20;22.30;94.50
11280;DHT22;5696;50.928;6.960;2022-07-29T06:28:46;22.40;94.60
11280;DHT22;5696;50.928;6.960;2022-07-29T06:31:11;22.50;94.60
11280;DHT22;5696;50.928;6.960;2022-07-29T06:33:37;22.50;94.60
11280;DHT22;5696;50.928;6.960;2022-07-29T06:36:06;22.40;94.20
11280;DHT22;5696;50.928;6.960;2022-07-29T06:38:32;22.40;94.40
11280;DHT22;5696;50.928;6.960;2022-07-29T06:40:59;22.30;94.30
11280;DHT22;5696;50.928;6.960;2022-07-29T06:43:38;22.10;94.70
11280;DHT22;5696;50.928;6.960;2022-07-29T06:46:07;21.90;94.80
11280;DHT22;5696;50.928;6.960;2022-07-29T06:48:33;21.80;95.10
11280;DHT22;5696;50.928;6.960;2022-07-29T06:50:59;21.80;95.30
11280;DHT22;5696;50.928;6.960;2022-07-29T06:53:26;21.60;95.50
11280;DHT22;5696;50.928;6.960;2022-07-29T06:55:52;21.60;95.40
11280;DHT22;5696;50.928;6.960;2022-07-29T06:58:18;21.50;95.70
11280;DHT22;5696;50.928;6.960;2022-07-29T07:00:47;21.50;95.70
11280;DHT22;5696;50.928;6.960;2022-07-29T07:03:13;21.50;95.80
11280;DHT22;5696;50.928;6.960;2022-07-29T07:05:40;21.60;96.30
11280;DHT22;5696;50.928;6.960;2022-07-29T07:08:05;22.20;97.00
11280;DHT22;5696;50.928;6.960;2022-07-29T07:10:32;22.50;97.40
11280;DHT22;5696;50.928;6.960;2022-07-29T07:12:58;22.50;96.10
11280;DHT22;5696;50.928;6.960;2022-07-29T07:15:24;22.60;96.20
11280;DHT22;5696;50.928;6.960;2022-07-29T07:17:50;22.70;96.30
11280;DHT22;5696;50.928;6.960;2022-07-29T07:20:16;22.90;95.50
11280;DHT22;5696;50.928;6.960;2022-07-29T07:22:42;22.70;95.40
11280;DHT22;5696;50.928;6.960;2022-07-29T07:25:10;22.50;95.50
11280;DHT22;5696;50.928;6.960;2022-07-29T07:27:36;22.60;95.60
11280;DHT22;5696;50.928;6.960;2022-07-29T07:30:03;23.10;95.50
11280;DHT22;5696;50.928;6.960;2022-07-29T07:32:31;23.40;93.80
11280;DHT22;5696;50.928;6.960;2022-07-29T07:34:57;23.40;92.70
11280;DHT22;5696;50.928;6.960;2022-07-29T07:37:24;23.20;93.10
11280;DHT22;5696;50.928;6.960;2022-07-29T07:39:53;23.20;93.30
11280;DHT22;5696;50.928;6.960;2022-07-29T07:42:20;23.00;93.50
11280;DHT22;5696;50.928;6.960;2022-07-29T07:44:45;22.90;93.80
11280;DHT22;5696;50.928;6.960;2022-07-29T07:47:15;22.60;94.50
11280;DHT22;5696;50.928;6.960;2022-07-29T07:49:48;22.80;94.50
11280;DHT22;5696;50.928;6.960;2022-07-29T07:52:15;22.90;94.50
11280;DHT22;5696;50.928;6.960;2022-07-29T07:54:41;22.90;94.90
11280;DHT22;5696;50.928;6.960;2022-07-29T07:57:08;22.90;95.80
11280;DHT22;5696;50.928;6.960;2022-07-29T07:59:34;22.80;97.30
11280;DHT22;5696;50.928;6.960;2022-07-29T08:02:00;22.60;98.70
11280;DHT22;5696;50.928;6.960;2022-07-29T08:04:26;22.40;99.50
11280;DHT22;5696;50.928;6.960;2022-07-29T08:06:52;22.40;99.90
11280;DHT22;5696;50.928;6.960;2022-07-29T08:09:20;22.40;99.90
11280;DHT22;5696;50.928;6.960;2022-07-29T08:11:46;22.50;99.90
11280;DHT22;5696;50.928;6.960;2022-07-29T08:14:11;22.50;99.90
11280;DHT22;5696;50.928;6.960;2022-07-29T08:16:37;22.40;99.90
11280;DHT22;5696;50.928;6.960;2022-07-29T08:19:02;22.20;99.90
11280;DHT22;5696;50.928;6.960;2022-07-29T08:21:28;22.20;99.90
11280;DHT22;5696;50.928;6.960;2022-07-29T08:23:54;22.30;99.90
11280;DHT22;5696;50.928;6.960;2022-07-29T08:26:41;22.40;99.90
11280;DHT22;5696;50.928;6.960;2022-07-29T08:29:06;22.50;99.90
11280;DHT22;5696;50.928;6.960;2022-07-29T08:31:32;22.60;99.90
11280;DHT22;5696;50.928;6.960;2022-07-29T08:33:58;22.70;99.90
11280;DHT22;5696;50.928;6.960;2022-07-29T08:36:25;22.70;99.90
11280;DHT22;5696;50.928;6.960;2022-07-29T08:38:51;22.60;99.90
11280;DHT22;5696;50.928;6.960;2022-07-29T08:41:18;22.70;99.90
11280;DHT22;5696;50.928;6.960;2022-07-29T08:43:45;22.60;99.90
11280;DHT22;5696;50.928;6.960;2022-07-29T08:46:10;22.60;99.90
11280;DHT22;5696;50.928;6.960;2022-07-29T08:48:36;22.60;99.90
11280;DHT22;5696;50.928;6.960;2022-07-29T08:51:02;22.80;99.90
11280;DHT22;5696;50.928;6.960;2022-07-29T08:53:28;23.00;99.90
11280;DHT22;5696;50.928;6.960;2022-07-29T08:55:54;23.20;99.90
11280;DHT22;5696;50.928;6.960;2022-07-29T08:58:21;23.40;99.90
11280;DHT22;5696;50.928;6.960;2022-07-29T09:00:55;23.60;99.70
11280;DHT22;5696;50.928;6.960;2022-07-29T09:03:24;23.70;99.60
11280;DHT22;5696;50.928;6.960;2022-07-29T09:05:50;23.90;99.10
11280;DHT22;5696;50.928;6.960;2022-07-29T09:08:17;24.10;98.60
11280;DHT22;5696;50.928;6.960;2022-07-29T09:10:43;24.40;98.10
11280;DHT22;5696;50.928;6.960;2022-07-29T09:13:09;24.50;98.20
11280;DHT22;5696;50.928;6.960;2022-07-29T09:15:35;24.50;98.50
11280;DHT22;5696;50.928;6.960;2022-07-29T09:18:05;24.50;98.10
11280;DHT22;5696;50.928;6.960;2022-07-29T09:20:31;24.40;98.60
11280;DHT22;5696;50.928;6.960;2022-07-29T09:23:15;24.30;99.20
11280;DHT22;5696;50.928;6.960;2022-07-29T09:25:41;24.30;99.90
11280;DHT22;5696;50.928;6.960;2022-07-29T09:28:16;24.40;99.90
11280;DHT22;5696;50.928;6.960;2022-07-29T09:30:57;24.60;99.90
11280;DHT22;5696;50.928;6.960;2022-07-29T09:33:31;24.70;99.90
11280;DHT22;5696;50.928;6.960;2022-07-29T09:36:07;25.00;99.90
11280;DHT22;5696;50.928;6.960;2022-07-29T09:38:33;25.30;99.90
11280;DHT22;5696;50.928;6.960;2022-07-29T09:41:02;25.80;99.50
11280;DHT22;5696;50.928;6.960;2022-07-29T09:43:29;26.30;98.30
11280;DHT22;5696;50.928;6.960;2022-07-29T09:45:55;26.60;97.30
11280;DHT22;5696;50.928;6.960;2022-07-29T09:48:23;26.80;95.80
11280;DHT22;5696;50.928;6.960;2022-07-29T09:50:49;26.90;94.50
11280;DHT22;5696;50.928;6.960;2022-07-29T09:53:35;26.90;94.90
11280;DHT22;5696;50.928;6.960;2022-07-29T09:56:02;26.90;94.30
11280;DHT22;5696;50.928;6.960;2022-07-29T09:58:28;26.90;93.50
11280;DHT22;5696;50.928;6.960;2022-07-29T10:00:54;26.80;93.70
11280;DHT22;5696;50.928;6.960;2022-07-29T10:03:21;26.80;93.50
11280;DHT22;5696;50.928;6.960;2022-07-29T10:06:07;27.00;93.60
11280;DHT22;5696;50.928;6.960;2022-07-29T10:08:33;27.20;93.60
11280;DHT22;5696;50.928;6.960;2022-07-29T10:11:18;27.10;93.00
11280;DHT22;5696;50.928;6.960;2022-07-29T10:13:45;27.00;91.70
11280;DHT22;5696;50.928;6.960;2022-07-29T10:16:12;27.00;91.60
11280;DHT22;5696;50.928;6.960;2022-07-29T10:18:40;27.10;91.30
11280;DHT22;5696;50.928;6.960;2022-07-29T10:21:06;27.20;90.70
11280;DHT22;5696;50.928;6.960;2022-07-29T10:23:34;27.20;90.90
11280;DHT22;5696;50.928;6.960;2022-07-29T10:26:00;27.40;90.30
11280;DHT22;5696;50.928;6.960;2022-07-29T10:28:25;27.60;90.10
11280;DHT22;5696;50.928;6.960;2022-07-29T10:30:52;27.80;89.40
11280;DHT22;5696;50.928;6.960;2022-07-29T10:34:04;27.90;89.10
11280;DHT22;5696;50.928;6.960;2022-07-29T10:37:19;27.90;87.60
11280;DHT22;5696;50.928;6.960;2022-07-29T10:39:52;28.10;87.00
11280;DHT22;5696;50.928;6.960;2022-07-29T10:42:25;28.30;87.00
11280;DHT22;5696;50.928;6.960;2022-07-29T10:44:52;28.50;84.80
11280;DHT22;5696;50.928;6.960;2022-07-29T10:47:26;28.70;83.30
11280;DHT22;5696;50.928;6.960;2022-07-29T10:50:02;28.70;83.60
11280;DHT22;5696;50.928;6.960;2022-07-29T10:55:35;28.30;84.50
11280;DHT22;5696;50.928;6.960;2022-07-29T10:58:20;28.60;83.30
11280;DHT22;5696;50.928;6.960;2022-07-29T11:00:48;28.70;83.50
11280;DHT22;5696;50.928;6.960;2022-07-29T11:06:05;28.50;82.20
11280;DHT22;5696;50.928;6.960;2022-07-29T11:08:30;28.30;83.30
11280;DHT22;5696;50.928;6.960;2022-07-29T11:13:48;27.50;82.50
11280;DHT22;5696;50.928;6.960;2022-07-29T11:16:16;27.50;83.40
11280;DHT22;5696;50.928;6.960;2022-07-29T11:21:37;27.90;82.30
11280;DHT22;5696;50.928;6.960;2022-07-29T11:24:24;28.20;81.30
11280;DHT22;5696;50.928;6.960;2022-07-29T11:29:48;28.30;77.60
11280;DHT22;5696;50.928;6.960;2022-07-29T11:32:16;28.20;79.00
11280;DHT22;5696;50.928;6.960;2022-07-29T11:34:43;28.10;77.30
11280;DHT22;5696;50.928;6.960;2022-07-29T11:39:41;28.10;79.60
11280;DHT22;5696;50.928;6.960;2022-07-29T11:47:31;28.30;77.30
11280;DHT22;5696;50.928;6.960;2022-07-29T11:49:58;28.60;76.10
11280;DHT22;5696;50.928;6.960;2022-07-29T11:52:37;28.80;75.30
11280;DHT22;5696;50.928;6.960;2022-07-29T11:55:09;28.80;75.50
11280;DHT22;5696;50.928;6.960;2022-07-29T11:57:36;28.80;76.20
11280;DHT22;5696;50.928;6.960;2022-07-29T12:00:05;28.70;74.90
11280;DHT22;5696;50.928;6.960;2022-07-29T12:02:39;28.60;75.70
11280;DHT22;5696;50.928;6.960;2022-07-29T12:05:07;28.40;76.70
11280;DHT22;5696;50.928;6.960;2022-07-29T12:07:34;28.60;76.20
11280;DHT22;5696;50.928;6.960;2022-07-29T12:10:01;28.60;75.90
11280;DHT22;5696;50.928;6.960;2022-07-29T12:12:27;28.70;75.80
11280;DHT22;5696;50.928;6.960;2022-07-29T12:14:53;28.50;74.80
11280;DHT22;5696;50.928;6.960;2022-07-29T12:17:36;28.40;74.90
11280;DHT22;5696;50.928;6.960;2022-07-29T12:20:03;28.30;75.30
11280;DHT22;5696;50.928;6.960;2022-07-29T12:22:32;28.50;75.90
11280;DHT22;5696;50.928;6.960;2022-07-29T12:25:15;28.60;75.00
11280;DHT22;5696;50.928;6.960;2022-07-29T12:27:42;28.50;74.70
11280;DHT22;5696;50.928;6.960;2022-07-29T12:30:15;28.80;74.60
11280;DHT22;5696;50.928;6.960;2022-07-29T12:32:43;29.10;73.50
11280;DHT22;5696;50.928;6.960;2022-07-29T12:35:12;29.50;72.20
11280;DHT22;5696;50.928;6.960;2022-07-29T12:37:40;29.40;70.30
11280;DHT22;5696;50.928;6.960;2022-07-29T12:40:07;29.10;70.00
11280;DHT22;5696;50.928;6.960;2022-07-29T12:42:33;28.90;69.60
11280;DHT22;5696;50.928;6.960;2022-07-29T12:45:00;28.80;70.30
11280;DHT22;5696;50.928;6.960;2022-07-29T12:47:26;29.30;68.60
11280;DHT22;5696;50.928;6.960;2022-07-29T12:50:09;29.40;67.60
11280;DHT22;5696;50.928;6.960;2022-07-29T12:52:35;29.70;67.10
11280;DHT22;5696;50.928;6.960;2022-07-29T12:55:12;29.50;66.10
11280;DHT22;5696;50.928;6.960;2022-07-29T12:57:47;29.40;66.00
11280;DHT22;5696;50.928;6.960;2022-07-29T13:00:14;29.30;66.10
11280;DHT22;5696;50.928;6.960;2022-07-29T13:02:42;29.50;66.20
11280;DHT22;5696;50.928;6.960;2022-07-29T13:05:10;29.50;65.20
11280;DHT22;5696;50.928;6.960;2022-07-29T13:07:37;29.20;65.50
11280;DHT22;5696;50.928;6.960;2022-07-29T13:10:15;29.20;65.50
11280;DHT22;5696;50.928;6.960;2022-07-29T13:13:08;29.20;65.10
11280;DHT22;5696;50.928;6.960;2022-07-29T13:15:42;29.20;64.90
11280;DHT22;5696;50.928;6.960;2022-07-29T13:18:27;29.20;64.90
11280;DHT22;5696;50.928;6.960;2022-07-29T13:20:53;29.40;65.40
11280;DHT22;5696;50.928;6.960;2022-07-29T13:23:19;29.30;64.20
11280;DHT22;5696;50.928;6.960;2022-07-29T13:25:45;29.40;65.30
11280;DHT22;5696;50.928;6.960;2022-07-29T13:28:11;29.20;64.00
11280;DHT22;5696;50.928;6.960;2022-07-29T13:30:37;29.20;63.60
11280;DHT22;5696;50.928;6.960;2022-07-29T13:33:04;29.40;64.00
11280;DHT22;5696;50.928;6.960;2022-07-29T13:35:30;29.50;63.00
11280;DHT22;5696;50.928;6.960;2022-07-29T13:37:55;29.40;63.50
11280;DHT22;5696;50.928;6.960;2022-07-29T13:40:21;29.40;63.80
11280;DHT22;5696;50.928;6.960;2022-07-29T13:42:47;29.10;67.90
11280;DHT22;5696;50.928;6.960;2022-07-29T13:45:12;29.10;69.70
11280;DHT22;5696;50.928;6.960;2022-07-29T13:47:38;29.20;69.80
11280;DHT22;5696;50.928;6.960;2022-07-29T13:50:06;29.20;70.30
11280;DHT22;5696;50.928;6.960;2022-07-29T13:52:33;29.20;70.40
11280;DHT22;5696;50.928;6.960;2022-07-29T13:54:59;29.40;69.30
11280;DHT22;5696;50.928;6.960;2022-07-29T13:57:24;29.40;69.90
11280;DHT22;5696;50.928;6.960;2022-07-29T13:59:50;29.30;69.30
11280;DHT22;5696;50.928;6.960;2022-07-29T14:02:16;29.10;69.30
11280;DHT22;5696;50.928;6.960;2022-07-29T14:04:42;29.00;69.80
11280;DHT22;5696;50.928;6.960;2022-07-29T14:07:07;29.00;69.80
11280;DHT22;5696;50.928;6.960;2022-07-29T14:09:33;28.80;70.10
11280;DHT22;5696;50.928;6.960;2022-07-29T14:11:59;28.80;71.30
11280;DHT22;5696;50.928;6.960;2022-07-29T14:14:25;28.90;70.90
11280;DHT22;5696;50.928;6.960;2022-07-29T14:16:50;29.00;69.40
11280;DHT22;5696;50.928;6.960;2022-07-29T14:19:16;29.10;68.90
11280;DHT22;5696;50.928;6.960;2022-07-29T14:21:42;29.00;68.40
11280;DHT22;5696;50.928;6.960;2022-07-29T14:24:07;28.90;67.80
11280;DHT22;5696;50.928;6.960;2022-07-29T14:26:33;28.80;68.30
11280;DHT22;5696;50.928;6.960;2022-07-29T14:28:59;28.70;68.20
11280;DHT22;5696;50.928;6.960;2022-07-29T14:31:24;28.60;68.20
11280;DHT22;5696;50.928;6.960;2022-07-29T14:33:50;28.50;68.90
11280;DHT22;5696;50.928;6.960;2022-07-29T14:36:16;28.30;69.30
11280;DHT22;5696;50.928;6.960;2022-07-29T14:38:45;28.10;70.30
11280;DHT22;5696;50.928;6.960;2022-07-29T14:41:10;28.00;70.70
11280;DHT22;5696;50.928;6.960;2022-07-29T14:43:36;28.00;71.30
11280;DHT22;5696;50.928;6.960;2022-07-29T14:46:02;28.00;71.10
11280;DHT22;5696;50.928;6.960;2022-07-29T14:48:27;28.20;70.80
11280;DHT22;5696;50.928;6.960;2022-07-29T14:50:53;28.30;69.70
11280;DHT22;5696;50.928;6.960;2022-07-29T14:53:21;28.30;70.10
11280;DHT22;5696;50.928;6.960;2022-07-29T14:55:47;28.20;70.30
11280;DHT22;5696;50.928;6.960;2022-07-29T14:58:13;28.20;70.40
11280;DHT22;5696;50.928;6.960;2022-07-29T15:00:39;28.20;70.20
11280;DHT22;5696;50.928;6.960;2022-07-29T15:03:05;28.20;70.70
11280;DHT22;5696;50.928;6.960;2022-07-29T15:05:31;28.40;69.50
11280;DHT22;5696;50.928;6.960;2022-07-29T15:07:58;28.40;69.20
11280;DHT22;5696;50.928;6.960;2022-07-29T15:10:24;28.20;69.80
11280;DHT22;5696;50.928;6.960;2022-07-29T15:12:53;28.20;70.00
11280;DHT22;5696;50.928;6.960;2022-07-29T15:15:19;28.00;70.70
11280;DHT22;5696;50.928;6.960;2022-07-29T15:17:44;27.80;70.20
11280;DHT22;5696;50.928;6.960;2022-07-29T15:20:11;27.60;70.60
11280;DHT22;5696;50.928;6.960;2022-07-29T15:22:37;27.50;70.00
11280;DHT22;5696;50.928;6.960;2022-07-29T15:25:04;27.40;70.90
11280;DHT22;5696;50.928;6.960;2022-07-29T15:27:30;27.50;71.20
11280;DHT22;5696;50.928;6.960;2022-07-29T15:29:56;27.30;71.50
11280;DHT22;5696;50.928;6.960;2022-07-29T15:32:22;27.50;72.00
11280;DHT22;5696;50.928;6.960;2022-07-29T15:34:48;27.60;70.70
11280;DHT22;5696;50.928;6.960;2022-07-29T15:37:14;27.70;70.60
11280;DHT22;5696;50.928;6.960;2022-07-29T15:39:39;28.00;70.30
11280;DHT22;5696;50.928;6.960;2022-07-29T15:42:05;28.10;69.20
11280;DHT22;5696;50.928;6.960;2022-07-29T15:44:31;28.10;68.70
11280;DHT22;5696;50.928;6.960;2022-07-29T15:46:57;27.90;68.00
11280;DHT22;5696;50.928;6.960;2022-07-29T15:49:37;27.70;68.60
11280;DHT22;5696;50.928;6.960;2022-07-29T15:52:09;27.70;69.00
11280;DHT22;5696;50.928;6.960;2022-07-29T15:54:36;27.80;68.40
11280;DHT22;5696;50.928;6.960;2022-07-29T15:57:03;27.80;67.10
11280;DHT22;5696;50.928;6.960;2022-07-29T15:59:29;27.50;68.40
11280;DHT22;5696;50.928;6.960;2022-07-29T16:01:55;27.40;68.90
11280;DHT22;5696;50.928;6.960;2022-07-29T16:04:21;27.30;69.50
11280;DHT22;5696;50.928;6.960;2022-07-29T16:06:47;27.20;70.30
11280;DHT22;5696;50.928;6.960;2022-07-29T16:09:14;27.20;69.40
11280;DHT22;5696;50.928;6.960;2022-07-29T16:11:40;27.20;69.10
11280;DHT22;5696;50.928;6.960;2022-07-29T16:14:07;27.20;69.00
11280;DHT22;5696;50.928;6.960;2022-07-29T16:16:33;27.20;68.70
11280;DHT22;5696;50.928;6.960;2022-07-29T16:18:59;27.10;69.10
11280;DHT22;5696;50.928;6.960;2022-07-29T16:21:25;27.00;70.10
11280;DHT22;5696;50.928;6.960;2022-07-29T16:23:50;26.90;69.30
11280;DHT22;5696;50.928;6.960;2022-07-29T16:26:17;26.70;69.10
11280;DHT22;5696;50.928;6.960;2022-07-29T16:28:42;26.70;68.50
11280;DHT22;5696;50.928;6.960;2022-07-29T16:31:08;26.70;67.90
11280;DHT22;5696;50.928;6.960;2022-07-29T16:33:34;26.70;67.50
11280;DHT22;5696;50.928;6.960;2022-07-29T16:36:00;26.70;67.10
11280;DHT22;5696;50.928;6.960;2022-07-29T16:38:26;26.70;66.60
11280;DHT22;5696;50.928;6.960;2022-07-29T16:40:51;26.80;66.90
11280;DHT22;5696;50.928;6.960;2022-07-29T16:43:17;26.90;66.30
11280;DHT22;5696;50.928;6.960;2022-07-29T16:45:43;26.80;65.60
11280;DHT22;5696;50.928;6.960;2022-07-29T16:48:08;26.80;65.10
11280;DHT22;5696;50.928;6.960;2022-07-29T16:50:34;26.80;64.70
11280;DHT22;5696;50.928;6.960;2022-07-29T16:52:59;26.90;65.50
11280;DHT22;5696;50.928;6.960;2022-07-29T16:55:26;26.90;65.20
11280;DHT22;5696;50.928;6.960;2022-07-29T16:57:52;26.90;65.20
11280;DHT22;5696;50.928;6.960;2022-07-29T17:00:19;26.80;65.10
11280;DHT22;5696;50.928;6.960;2022-07-29T17:02:45;26.80;65.60
11280;DHT22;5696;50.928;6.960;2022-07-29T17:05:11;26.90;65.00
11280;DHT22;5696;50.928;6.960;2022-07-29T17:07:38;27.00;65.20
11280;DHT22;5696;50.928;6.960;2022-07-29T17:10:05;27.00;65.40
11280;DHT22;5696;50.928;6.960;2022-07-29T17:12:34;27.00;65.70
11280;DHT22;5696;50.928;6.960;2022-07-29T17:15:01;27.00;65.90
11280;DHT22;5696;50.928;6.960;2022-07-29T17:17:26;26.90;66.00
11280;DHT22;5696;50.928;6.960;2022-07-29T17:19:52;26.90;66.00
11280;DHT22;5696;50.928;6.960;2022-07-29T17:22:18;26.90;66.50
11280;DHT22;5696;50.928;6.960;2022-07-29T17:24:45;27.00;66.90
11280;DHT22;5696;50.928;6.960;2022-07-29T17:27:11;27.00;67.00
11280;DHT22;5696;50.928;6.960;2022-07-29T17:29:37;26.90;67.60
11280;DHT22;5696;50.928;6.960;2022-07-29T17:32:13;26.90;68.10
11280;DHT22;5696;50.928;6.960;2022-07-29T17:34:40;26.90;68.40
11280;DHT22;5696;50.928;6.960;2022-07-29T17:37:07;26.90;68.60
11280;DHT22;5696;50.928;6.960;2022-07-29T17:39:34;26.80;69.10
11280;DHT22;5696;50.928;6.960;2022-07-29T17:42:03;26.90;69.10
11280;DHT22;5696;50.928;6.960;2022-07-29T17:44:29;26.90;69.30
11280;DHT22;5696;50.928;6.960;2022-07-29T17:46:55;26.70;69.90
11280;DHT22;5696;50.928;6.960;2022-07-29T17:49:20;26.70;70.30
11280;DHT22;5696;50.928;6.960;2022-07-29T17:51:46;26.70;70.70
11280;DHT22;5696;50.928;6.960;2022-07-29T17:54:12;26.60;70.70
11280;DHT22;5696;50.928;6.960;2022-07-29T17:56:37;26.70;71.30
11280;DHT22;5696;50.928;6.960;2022-07-29T17:59:03;26.60;71.50
11280;DHT22;5696;50.928;6.960;2022-07-29T18:01:34;26.60;72.20
11280;DHT22;5696;50.928;6.960;2022-07-29T18:04:00;26.60;72.70
11280;DHT22;5696;50.928;6.960;2022-07-29T18:06:27;26.50;73.30
11280;DHT22;5696;50.928;6.960;2022-07-29T18:08:53;26.40;73.10
11280;DHT22;5696;50.928;6.960;2022-07-29T18:11:21;26.20;74.00
11280;DHT22;5696;50.928;6.960;2022-07-29T18:13:47;26.20;74.70
11280;DHT22;5696;50.928;6.960;2022-07-29T18:16:13;26.20;74.90
11280;DHT22;5696;50.928;6.960;2022-07-29T18:18:38;26.00;75.70
11280;DHT22;5696;50.928;6.960;2022-07-29T18:21:04;25.90;76.40
11280;DHT22;5696;50.928;6.960;2022-07-29T18:23:30;25.70;77.00
11280;DHT22;5696;50.928;6.960;2022-07-29T18:25:56;25.60;77.30
11280;DHT22;5696;50.928;6.960;2022-07-29T18:28:22;25.50;77.20
11280;DHT22;5696;50.928;6.960;2022-07-29T18:30:47;25.40;77.90
11280;DHT22;5696;50.928;6.960;2022-07-29T18:33:13;25.30;77.50
11280;DHT22;5696;50.928;6.960;2022-07-29T18:35:48;25.30;77.90
11280;DHT22;5696;50.928;6.960;2022-07-29T18:38:13;25.20;78.20
11280;DHT22;5696;50.928;6.960;2022-07-29T18:40:39;25.20;78.30
11280;DHT22;5696;50.928;6.960;2022-07-29T18:43:07;25.20;78.50
11280;DHT22;5696;50.928;6.960;2022-07-29T18:45:33;25.10;78.80
11280;DHT22;5696;50.928;6.960;2022-07-29T18:47:59;24.90;79.00
11280;DHT22;5696;50.928;6.960;2022-07-29T18:50:25;24.80;79.50
11280;DHT22;5696;50.928;6.960;2022-07-29T18:52:51;24.80;79.50
11280;DHT22;5696;50.928;6.960;2022-07-29T18:55:17;24.60;79.60
11280;DHT22;5696;50.928;6.960;2022-07-29T18:57:43;24.60;79.30
11280;DHT22;5696;50.928;6.960;2022-07-29T19:00:09;24.50;79.90
11280;DHT22;5696;50.928;6.960;2022-07-29T19:02:37;24.50;79.50
11280;DHT22;5696;50.928;6.960;2022-07-29T19:05:07;24.40;79.60
11280;DHT22;5696;50.928;6.960;2022-07-29T19:07:33;24.30;80.50
11280;DHT22;5696;50.928;6.960;2022-07-29T19:10:00;24.30;80.70
11280;DHT22;5696;50.928;6.960;2022-07-29T19:12:25;24.10;80.80
11280;DHT22;5696;50.928;6.960;2022-07-29T19:14:51;24.00;81.50
11280;DHT22;5696;50.928;6.960;2022-07-29T19:17:17;23.90;82.20
11280;DHT22;5696;50.928;6.960;2022-07-29T19:19:42;23.90;82.60
11280;DHT22;5696;50.928;6.960;2022-07-29T19:22:08;23.80;82.90
11280;DHT22;5696;50.928;6.960;2022-07-29T19:24:34;23.70;83.20
11280;DHT22;5696;50.928;6.960;2022-07-29T19:27:00;23.70;83.30
11280;DHT22;5696;50.928;6.960;2022-07-29T19:29:25;23.70;83.30
11280;DHT22;5696;50.928;6.960;2022-07-29T19:31:52;23.70;83.30
11280;DHT22;5696;50.928;6.960;2022-07-29T19:34:18;23.60;83.50
11280;DHT22;5696;50.928;6.960;2022-07-29T19:36:43;23.40;84.10
11280;DHT22;5696;50.928;6.960;2022-07-29T19:39:09;23.40;84.50
11280;DHT22;5696;50.928;6.960;2022-07-29T19:41:35;23.30;84.80
11280;DHT22;5696;50.928;6.960;2022-07-29T19:44:02;23.30;85.10
11280;DHT22;5696;50.928;6.960;2022-07-29T19:46:28;23.30;85.50
11280;DHT22;5696;50.928;6.960;2022-07-29T19:48:54;23.30;85.60
11280;DHT22;5696;50.928;6.960;2022-07-29T19:51:21;23.20;85.90
11280;DHT22;5696;50.928;6.960;2022-07-29T19:53:48;23.10;86.20
11280;DHT22;5696;50.928;6.960;2022-07-29T19:56:14;23.10;86.90
11280;DHT22;5696;50.928;6.960;2022-07-29T19:58:39;23.00;87.10
11280;DHT22;5696;50.928;6.960;2022-07-29T20:01:05;23.10;87.70
11280;DHT22;5696;50.928;6.960;2022-07-29T20:03:31;23.00;87.90
11280;DHT22;5696;50.928;6.960;2022-07-29T20:05:56;23.00;88.40
11280;DHT22;5696;50.928;6.960;2022-07-29T20:08:22;23.00;88.50
11280;DHT22;5696;50.928;6.960;2022-07-29T20:10:48;23.10;89.00
11280;DHT22;5696;50.928;6.960;2022-07-29T20:13:14;23.00;89.10
11280;DHT22;5696;50.928;6.960;2022-07-29T20:15:39;22.90;89.60
11280;DHT22;5696;50.928;6.960;2022-07-29T20:18:05;22.80;90.00
11280;DHT22;5696;50.928;6.960;2022-07-29T20:20:31;22.90;90.20
11280;DHT22;5696;50.928;6.960;2022-07-29T20:22:57;22.80;90.10
11280;DHT22;5696;50.928;6.960;2022-07-29T20:25:24;22.80;90.50
11280;DHT22;5696;50.928;6.960;2022-07-29T20:27:49;22.80;90.40
11280;DHT22;5696;50.928;6.960;2022-07-29T20:30:17;22.60;90.60
11280;DHT22;5696;50.928;6.960;2022-07-29T20:32:43;22.60;90.60
11280;DHT22;5696;50.928;6.960;2022-07-29T20:35:09;22.60;90.80
11280;DHT22;5696;50.928;6.960;2022-07-29T20:37:37;22.50;90.90
11280;DHT22;5696;50.928;6.960;2022-07-29T20:40:03;22.50;91.10
11280;DHT22;5696;50.928;6.960;2022-07-29T20:42:29;22.40;91.50
11280;DHT22;5696;50.928;6.960;2022-07-29T20:44:55;22.40;91.20
11280;DHT22;5696;50.928;6.960;2022-07-29T20:47:22;22.40;91.20
11280;DHT22;5696;50.928;6.960;2022-07-29T20:49:48;22.40;91.40
11280;DHT22;5696;50.928;6.960;2022-07-29T20:52:14;22.40;91.50
11280;DHT22;5696;50.928;6.960;2022-07-29T20:54:39;22.40;91.60
11280;DHT22;5696;50.928;6.960;2022-07-29T20:57:05;22.30;91.70
11280;DHT22;5696;50.928;6.960;2022-07-29T20:59:30;22.30;91.90
11280;DHT22;5696;50.928;6.960;2022-07-29T21:01:57;22.30;92.00
11280;DHT22;5696;50.928;6.960;2022-07-29T21:04:23;22.20;92.40
11280;DHT22;5696;50.928;6.960;2022-07-29T21:06:51;22.20;92.80
11280;DHT22;5696;50.928;6.960;2022-07-29T21:09:17;22.10;93.00
11280;DHT22;5696;50.928;6.960;2022-07-29T21:11:43;22.10;93.20